Time;durP1;ratioP1;P1;durP2;ratioP2;P2;SDS_P1;SDS_P2;PMS_P1;PMS_P2;Temp;Humidity;BMP_temperature;BMP_pressure;BME280_temperature;BME280_humidity;BME280_pressure;Samples;Min_cycle;Max_cycle;Signal;HPM_P1;HPM_P2
2023/05/10 00:01:02;;;;;;;12.70;10.00;;;;;;;11.95;100.00;100786.53;6108468;23;20023;-70
2023/05/10 00:03:28;;;;;;;14.27;10.70;;;;;;;11.92;100.00;100776.06;6157971;23;20076;-70
2023/05/10 00:05:53;;;;;;;16.48;11.13;;;;;;;11.92;100.00;100778.69;6108951;23;20025;-70
2023/05/10 00:08:18;;;;;;;15.73;11.60;;;;;;;11.92;100.00;100773.44;6108597;23;20092;-70
2023/05/10 00:10:44;;;;;;;18.17;12.82;;;;;;;11.89;100.00;100770.88;6158095;23;20448;-70
2023/05/10 00:13:09;;;;;;;16.23;12.75;;;;;;;11.90;100.00;100767.34;6132835;23;20020;-71
2023/05/10 00:15:35;;;;;;;17.85;13.13;;;;;;;11.89;100.00;100773.50;6134020;23;20136;-70
2023/05/10 00:18:00;;;;;;;18.80;13.95;;;;;;;11.88;100.00;100777.00;6133048;23;20009;-79
2023/05/10 00:20:26;;;;;;;18.80;13.63;;;;;;;11.81;100.00;100780.63;6133172;23;20079;-80
2023/05/10 00:22:52;;;;;;;17.38;13.50;;;;;;;11.79;100.00;100778.91;6132584;23;20047;-79
2023/05/10 00:25:17;;;;;;;18.60;13.43;;;;;;;11.77;100.00;100780.69;6133545;23;20047;-71
2023/05/10 00:27:43;;;;;;;19.88;15.13;;;;;;;11.77;100.00;100783.31;6133185;23;20040;-71
2023/05/10 00:30:08;;;;;;;23.65;16.83;;;;;;;11.78;100.00;100777.19;6132925;23;20427;-71
2023/05/10 00:32:34;;;;;;;26.27;17.52;;;;;;;11.77;100.00;100774.59;6157576;23;20091;-71
2023/05/10 00:34:59;;;;;;;27.50;18.45;;;;;;;11.76;100.00;100768.44;6157791;23;20332;-70
2023/05/10 00:37:25;;;;;;;26.30;18.48;;;;;;;11.78;100.00;100777.19;6108013;23;20462;-70
2023/05/10 00:39:51;;;;;;;29.55;18.73;;;;;;;11.77;100.00;100775.44;6108662;23;20012;-70
2023/05/10 00:42:16;;;;;;;26.80;18.50;;;;;;;11.78;100.00;100771.06;6133869;23;20005;-70
2023/05/10 00:44:42;;;;;;;28.38;19.33;;;;;;;11.77;100.00;100772.81;6108492;23;20017;-71
2023/05/10 00:47:08;;;;;;;28.63;19.95;;;;;;;11.81;100.00;100780.63;6158278;23;20435;-71
2023/05/10 00:49:35;;;;;;;32.25;19.88;;;;;;;11.79;100.00;100778.03;6109053;23;20024;-71
2023/05/10 00:52:01;;;;;;;32.42;20.15;;;;;;;11.78;100.00;100769.31;6107976;23;20013;-70
2023/05/10 00:54:27;;;;;;;32.75;21.17;;;;;;;11.75;100.00;100776.34;6108891;23;20005;-71
2023/05/10 00:56:52;;;;;;;28.65;20.38;;;;;;;11.74;100.00;100766.75;6130526;23;20012;-71
2023/05/10 00:59:19;;;;;;;30.95;20.90;;;;;;;11.75;100.00;100771.09;6132186;23;20343;-71
2023/05/10 01:01:47;;;;;;;30.73;19.95;;;;;;;11.74;100.00;100774.66;6155908;23;20013;-71
2023/05/10 01:04:14;;;;;;;32.70;20.88;;;;;;;11.75;100.00;100771.09;6106265;23;20351;-71
2023/05/10 01:06:40;;;;;;;29.33;21.15;;;;;;;11.75;100.00;100769.38;6157024;23;20001;-71
2023/05/10 01:09:09;;;;;;;31.25;21.17;;;;;;;11.75;100.00;100771.09;6131922;23;20431;-79
2023/05/10 01:11:36;;;;;;;32.83;22.05;;;;;;;11.70;100.00;100770.34;6133738;23;20100;-79
2023/05/10 01:14:02;;;;;;;34.95;23.23;;;;;;;11.67;100.00;100773.03;6109274;23;20308;-79
2023/05/10 01:16:32;;;;;;;28.40;21.02;;;;;;;11.67;100.00;100773.03;6133623;23;20321;-79
2023/05/10 01:18:57;;;;;;;30.73;20.70;;;;;;;11.66;100.00;100769.50;6157845;23;20091;-79
2023/05/10 01:21:38;;;;;;;30.23;21.50;;;;;;;11.65;100.00;100773.03;6108763;23;20016;-79
2023/05/10 01:24:36;;;;;;;31.60;21.30;;;;;;;11.67;100.00;100773.03;6157477;23;20009;-79
2023/05/10 01:27:07;;;;;;;33.80;21.95;;;;;;;11.63;100.00;100777.44;6158157;23;20005;-80
2023/05/10 01:29:51;;;;;;;32.58;22.85;;;;;;;11.65;100.00;100773.03;6157263;23;20438;-79
2023/05/10 01:32:28;;;;;;;31.85;22.40;;;;;;;11.62;100.00;100773.06;6157850;23;20009;-79
2023/05/10 01:35:16;;;;;;;31.42;21.80;;;;;;;11.62;100.00;100765.19;6157192;23;19997;-80
2023/05/10 01:38:21;;;;;;;35.08;22.95;;;;;;;11.65;100.00;100770.41;6156476;23;20024;-79
2023/05/10 01:41:07;;;;;;;35.67;23.02;;;;;;;11.61;100.00;100768.75;6114954;23;20317;-79
2023/05/10 01:43:48;;;;;;;37.28;23.63;;;;;;;11.59;100.00;100762.63;6156266;23;20005;-80
2023/05/10 01:46:20;;;;;;;;;;;;;;;11.68;100.00;100770.38;6158289;23;20467;-79
2023/05/10 01:48:55;;;;;;;38.13;23.98;;;;;;;11.56;100.00;100776.66;6157607;23;20307;-80
2023/05/10 01:51:23;;;;;;;40.55;25.55;;;;;;;11.54;100.00;100773.22;6157164;23;20005;-80
2023/05/10 01:53:51;;;;;;;43.65;25.85;;;;;;;11.54;100.00;100777.59;6157206;23;20125;-79
2023/05/10 01:56:22;;;;;;;48.75;28.60;;;;;;;11.53;100.00;100781.13;6134632;23;20005;-79
2023/05/10 01:58:50;;;;;;;48.55;28.75;;;;;;;11.54;100.00;100772.34;6157917;23;20009;-80
2023/05/10 02:01:18;;;;;;;59.72;32.75;;;;;;;11.55;100.00;100781.94;6134816;23;20016;-80
2023/05/10 02:03:44;;;;;;;61.53;34.15;;;;;;;11.57;100.00;100785.44;6159237;23;20067;-80
2023/05/10 02:06:12;;;;;;;68.97;36.22;;;;;;;11.57;100.00;100791.53;6134480;23;20091;-71
2023/05/10 02:08:39;;;;;;;71.75;37.03;;;;;;;11.59;100.00;100781.88;6158616;23;20016;-71
2023/05/10 02:11:05;;;;;;;78.75;39.92;;;;;;;11.60;100.00;100788.84;6133776;23;20012;-71
2023/05/10 02:13:35;;;;;;;79.40;39.97;;;;;;;11.61;100.00;100789.72;6110053;23;20013;-71
2023/05/10 02:16:03;;;;;;;82.18;42.08;;;;;;;11.64;100.00;100792.31;6159422;23;20004;-71
2023/05/10 02:18:30;;;;;;;83.18;42.20;;;;;;;11.63;100.00;100793.19;6134102;23;20008;-71
2023/05/10 02:20:57;;;;;;;86.57;42.47;;;;;;;11.63;100.00;100797.56;6107197;23;20095;-71
2023/05/10 02:23:24;;;;;;;84.95;43.53;;;;;;;11.64;100.00;100792.31;6132071;23;20012;-71
2023/05/10 02:25:51;;;;;;;86.25;42.85;;;;;;;11.64;100.00;100800.19;6134324;23;20037;-71
2023/05/10 02:28:17;;;;;;;80.18;42.33;;;;;;;11.65;100.00;100801.91;6106861;23;20020;-71
2023/05/10 02:30:43;;;;;;;90.00;43.30;;;;;;;11.71;100.00;100804.44;6158532;23;20005;-71
2023/05/10 02:33:10;;;;;;;88.10;42.25;;;;;;;11.71;100.00;100796.56;6135118;23;20458;-80
2023/05/10 02:35:38;;;;;;;86.70;42.00;;;;;;;11.75;100.00;100799.97;6134997;23;20001;-79
2023/05/10 02:38:05;;;;;;;91.53;45.20;;;;;;;11.76;100.00;100797.31;6158596;23;20044;-80
2023/05/10 02:40:33;;;;;;;84.78;42.42;;;;;;;11.79;100.00;100799.91;6134605;23;20307;-80
2023/05/10 02:43:02;;;;;;;84.93;45.45;;;;;;;11.82;100.00;100800.75;6158094;23;20011;-80
2023/05/10 02:45:31;;;;;;;84.70;43.53;;;;;;;11.82;100.00;100798.97;6159279;23;20455;-80
2023/05/10 02:47:57;;;;;;;78.70;42.83;;;;;;;11.85;100.00;100804.19;6134153;23;20009;-80
2023/05/10 02:50:27;;;;;;;75.47;43.00;;;;;;;11.87;100.00;100797.16;6134783;23;20044;-81
2023/05/10 02:52:57;;;;;;;78.15;44.50;;;;;;;11.87;100.00;100793.66;6157735;23;20347;-80
2023/05/10 02:55:27;;;;;;;71.30;43.40;;;;;;;11.91;100.00;100795.31;6158762;23;20063;-81
2023/05/10 02:57:58;;;;;;;71.77;42.90;;;;;;;11.92;100.00;100799.69;6158107;23;20033;-80
2023/05/10 03:00:24;;;;;;;71.35;44.10;;;;;;;11.93;100.00;100802.31;6158843;23;20276;-80
2023/05/10 03:02:50;;;;;;;74.10;43.90;;;;;;;11.94;100.00;100793.56;6132997;23;20005;-80
2023/05/10 03:05:15;;;;;;;72.25;42.33;;;;;;;11.97;100.00;100792.63;6134869;23;20439;-80
2023/05/10 03:07:41;;;;;;;73.70;44.00;;;;;;;11.93;100.00;100791.81;6134259;23;20009;-80
2023/05/10 03:10:08;;;;;;;72.68;43.75;;;;;;;11.93;100.00;100793.53;6109379;23;20009;-80
2023/05/10 03:13:01;;;;;;;78.60;44.38;;;;;;;11.98;100.00;100804.00;6133571;23;20071;-80
2023/05/10 03:15:34;;;;;;;73.07;43.63;;;;;;;11.97;100.00;100800.50;6157768;23;20012;-80
2023/05/10 03:18:36;;;;;;;79.57;45.40;;;;;;;11.98;100.00;100794.34;6158965;23;20375;-81
2023/05/10 03:21:05;;;;;;;78.07;45.53;;;;;;;11.98;100.00;100804.84;6135280;23;20377;-80
2023/05/10 03:23:45;;;;;;;76.50;45.40;;;;;;;11.96;100.00;100802.25;6135479;23;20012;-80
2023/05/10 03:26:17;;;;;;;72.25;45.03;;;;;;;11.96;100.00;100809.28;6158779;23;20055;-81
2023/05/10 03:28:44;;;;;;;76.63;45.65;;;;;;;11.95;100.00;100811.03;6157066;23;20037;-80
2023/05/10 03:31:09;;;;;;;79.40;47.00;;;;;;;11.95;100.00;100803.16;6108843;23;20029;-80
2023/05/10 03:33:35;;;;;;;81.07;46.60;;;;;;;11.95;100.00;100805.78;6107864;23;20435;-81
2023/05/10 03:36:00;;;;;;;75.28;46.42;;;;;;;11.93;100.00;100804.06;6133536;23;20139;-80
2023/05/10 03:38:25;;;;;;;75.60;44.78;;;;;;;11.93;100.00;100811.94;6156227;23;20017;-80
2023/05/10 03:40:51;;;;;;;82.32;47.00;;;;;;;11.95;100.00;100818.03;6156510;23;20013;-81
2023/05/10 03:43:16;;;;;;;74.05;45.33;;;;;;;11.95;100.00;100812.78;6108268;23;20009;-80
2023/05/10 03:45:42;;;;;;;79.18;45.63;;;;;;;11.94;100.00;100814.56;6157774;23;20028;-80
2023/05/10 03:48:07;;;;;;;83.20;48.28;;;;;;;11.95;100.00;100812.78;6133585;23;20017;-80
2023/05/10 03:50:34;;;;;;;84.07;47.30;;;;;;;11.93;100.00;100823.31;6132527;23;20005;-79
2023/05/10 03:52:59;;;;;;;84.82;47.42;;;;;;;11.96;100.00;100822.41;6157201;23;20016;-80
2023/05/10 03:55:24;;;;;;;81.00;47.97;;;;;;;11.96;100.00;100825.03;6109309;23;20009;-80
2023/05/10 03:57:50;;;;;;;76.20;45.80;;;;;;;11.96;100.00;100833.75;6158202;23;20012;-80
2023/05/10 04:00:17;;;;;;;80.80;47.83;;;;;;;11.93;100.00;100825.94;6108651;23;20498;-81
2023/05/10 04:02:42;;;;;;;77.45;45.75;;;;;;;11.92;100.00;100824.22;6134491;23;20013;-81
2023/05/10 04:05:08;;;;;;;83.60;46.67;;;;;;;11.93;100.00;100830.31;6109698;23;20012;-80
2023/05/10 04:07:33;;;;;;;79.72;45.38;;;;;;;11.95;100.00;100829.44;6133667;23;20071;-79
2023/05/10 04:09:59;;;;;;;73.25;44.60;;;;;;;11.92;100.00;100826.84;6109334;23;20016;-79
2023/05/10 04:12:24;;;;;;;72.05;42.83;;;;;;;11.92;100.00;100832.09;6108703;23;20013;-81
2023/05/10 04:14:50;;;;;;;73.97;44.95;;;;;;;11.93;100.00;100828.56;6107870;23;20014;-80
2023/05/10 04:17:16;;;;;;;83.13;45.70;;;;;;;11.91;100.00;100829.44;6108913;23;20013;-81
2023/05/10 04:19:41;;;;;;;74.15;43.97;;;;;;;11.91;100.00;100834.72;6108738;23;20008;-79
2023/05/10 04:22:07;;;;;;;73.85;44.70;;;;;;;11.91;100.00;100835.59;6132122;23;20070;-81
2023/05/10 04:24:32;;;;;;;72.82;43.22;;;;;;;11.91;100.00;100838.22;6106288;23;20418;-80
2023/05/10 04:26:57;;;;;;;77.30;44.72;;;;;;;11.90;100.00;100835.63;6131379;23;20019;-80
2023/05/10 04:29:32;;;;;;;76.25;45.42;;;;;;;11.90;100.00;100833.84;6132986;23;20007;-80
2023/05/10 04:31:57;;;;;;;85.90;45.25;;;;;;;11.91;100.00;100843.47;6108929;23;20025;-71
2023/05/10 04:34:23;;;;;;;71.90;44.28;;;;;;;11.91;100.00;100842.59;6157647;23;20009;-71
2023/05/10 04:36:48;;;;;;;75.63;43.83;;;;;;;11.91;100.00;100843.47;6108409;23;20021;-71
2023/05/10 04:39:14;;;;;;;73.72;44.80;;;;;;;11.89;100.00;100837.38;6158256;23;20016;-71
2023/05/10 04:41:39;;;;;;;73.05;43.38;;;;;;;11.90;100.00;100840.88;6109827;23;20009;-71
2023/05/10 04:44:05;;;;;;;69.53;44.03;;;;;;;11.89;100.00;100839.13;6157862;23;20116;-71
2023/05/10 04:46:30;;;;;;;76.78;45.05;;;;;;;11.91;100.00;100839.97;6157621;23;20008;-71
2023/05/10 04:48:56;;;;;;;72.22;42.58;;;;;;;11.90;100.00;100843.50;6106737;23;20009;-71
2023/05/10 04:51:21;;;;;;;76.03;41.50;;;;;;;11.86;100.00;100858.41;6155918;23;20427;-70
2023/05/10 04:53:46;;;;;;;65.10;36.95;;;;;;;11.82;100.00;100851.50;6131512;23;20092;-71
2023/05/10 04:56:12;;;;;;;59.83;34.55;;;;;;;11.80;100.00;100858.53;6155952;23;20087;-71
2023/05/10 04:58:37;;;;;;;61.88;33.90;;;;;;;11.75;100.00;100861.25;6155631;23;20013;-71
2023/05/10 05:01:07;;;;;;;56.55;33.17;;;;;;;11.70;100.00;100855.19;6107377;23;20088;-71
2023/05/10 05:03:36;;;;;;;58.47;32.67;;;;;;;11.68;100.00;100857.00;6156511;23;20016;-71
2023/05/10 05:06:02;;;;;;;54.60;31.95;;;;;;;11.65;100.00;100858.78;6132163;23;20013;-71
2023/05/10 05:08:27;;;;;;;50.75;30.95;;;;;;;11.64;100.00;100867.53;6107884;23;20024;-71
2023/05/10 05:10:53;;;;;;;47.97;30.08;;;;;;;11.61;100.00;100866.69;6158104;23;20391;-71
2023/05/10 05:13:18;;;;;;;49.20;30.27;;;;;;;11.60;100.00;100872.84;6132780;23;20005;-71
2023/05/10 05:15:44;;;;;;;49.30;29.65;;;;;;;11.57;100.00;100872.03;6132971;23;20005;-71
2023/05/10 05:18:09;;;;;;;46.75;29.23;;;;;;;11.54;100.00;100867.69;6157274;23;20023;-71
2023/05/10 05:20:36;;;;;;;43.28;29.58;;;;;;;11.54;100.00;100866.84;6157057;23;20023;-71
2023/05/10 05:23:01;;;;;;;48.53;29.58;;;;;;;11.54;100.00;100875.56;6156058;23;20009;-71
2023/05/10 05:25:27;;;;;;;50.53;29.23;;;;;;;11.61;100.00;100873.72;6157543;23;20478;-71
2023/05/10 05:27:53;;;;;;;54.35;30.85;;;;;;;11.66;100.00;100876.28;6131944;23;20450;-72
2023/05/10 05:30:18;;;;;;;53.08;30.75;;;;;;;11.68;100.00;100877.97;6157005;23;20008;-71
2023/05/10 05:32:44;;;;;;;51.65;30.48;;;;;;;11.75;100.00;100882.25;6133065;23;20009;-71
2023/05/10 05:35:09;;;;;;;50.92;30.88;;;;;;;11.81;100.00;100877.78;6157218;23;20420;-71
2023/05/10 05:37:35;;;;;;;48.33;31.35;;;;;;;11.90;100.00;100877.63;6155324;23;20045;-71
2023/05/10 05:40:01;;;;;;;50.28;31.30;;;;;;;11.98;100.00;100873.13;6106319;23;20036;-71
2023/05/10 05:42:27;;;;;;;49.72;30.70;;;;;;;12.06;100.00;100884.38;6131350;23;20009;-72
2023/05/10 05:44:52;;;;;;;44.63;28.67;;;;;;;12.01;100.00;100883.63;6132412;23;20335;-71
2023/05/10 05:47:20;;;;;;;44.05;29.20;;;;;;;12.04;100.00;100888.81;6133474;23;20319;-72
2023/05/10 05:49:45;;;;;;;44.75;27.80;;;;;;;12.02;100.00;100889.72;6107155;23;20039;-71
2023/05/10 05:52:11;;;;;;;42.78;29.30;;;;;;;12.05;100.00;100889.66;6130816;23;20005;-72
2023/05/10 05:54:36;;;;;;;45.65;29.00;;;;;;;12.09;100.00;100889.56;6130655;23;20362;-72
2023/05/10 05:57:02;;;;;;;44.00;29.23;;;;;;;12.11;100.00;100892.19;6108509;23;20016;-72
2023/05/10 05:59:28;;;;;;;42.40;28.77;;;;;;;12.18;100.00;100891.16;6156795;23;20100;-72
2023/05/10 06:01:53;;;;;;;42.65;29.02;;;;;;;12.21;100.00;100890.25;6107887;23;20048;-72
2023/05/10 06:04:19;;;;;;;42.58;28.75;;;;;;;12.21;100.00;100893.78;6108316;23;20005;-72
2023/05/10 06:06:44;;;;;;;41.15;27.00;;;;;;;12.21;100.00;100891.16;6158529;23;20005;-72
2023/05/10 06:09:11;;;;;;;44.78;27.80;;;;;;;12.28;100.00;100894.50;6107732;23;20019;-71
2023/05/10 06:11:37;;;;;;;41.63;28.55;;;;;;;12.39;100.00;100896.97;6133780;23;20016;-72
2023/05/10 06:14:04;;;;;;;38.35;25.60;;;;;;;12.35;100.00;100906.63;6155278;23;20355;-80
2023/05/10 06:16:32;;;;;;;42.90;26.75;;;;;;;12.38;100.00;100909.22;6133114;23;20005;-82
2023/05/10 06:18:58;;;;;;;45.17;28.50;;;;;;;12.45;100.00;100910.81;6157302;23;20008;-81
2023/05/10 06:21:23;;;;;;;41.10;26.60;;;;;;;12.45;100.00;100908.19;6158072;23;20108;-82
2023/05/10 06:23:49;;;;;;;40.75;26.40;;;;;;;12.56;100.00;100913.28;6134054;23;20005;-81
2023/05/10 06:26:14;;;;;;;40.40;26.67;;;;;;;12.54;100.00;100919.44;6130714;23;20084;-80
2023/05/10 06:28:40;;;;;;;36.63;25.45;;;;;;;12.57;100.00;100908.88;6132902;23;20020;-80
2023/05/10 06:31:06;;;;;;;38.63;24.83;;;;;;;12.62;100.00;100907.03;6133163;23;20021;-80
2023/05/10 06:33:32;;;;;;;41.88;27.25;;;;;;;12.68;100.00;100914.78;6132873;23;20347;-80
2023/05/10 06:35:57;;;;;;;36.75;25.17;;;;;;;12.62;100.00;100923.66;6156594;23;20009;-80
2023/05/10 06:38:23;;;;;;;35.80;24.23;;;;;;;12.58;100.00;100914.09;6132408;23;20045;-80
2023/05/10 06:40:48;;;;;;;39.15;25.50;;;;;;;12.67;100.00;100927.97;6158061;23;20028;-81
2023/05/10 06:43:14;;;;;;;37.97;26.55;;;;;;;12.69;100.00;100927.06;6109836;23;20009;-79
2023/05/10 06:45:40;;;;;;;35.92;25.98;;;;;;;12.69;100.00;100923.56;6133009;23;20009;-79
2023/05/10 06:48:06;;;;;;;39.90;25.48;;;;;;;12.65;100.00;100930.63;6159040;23;20005;-79
2023/05/10 06:50:32;;;;;;;36.75;25.67;;;;;;;12.67;100.00;100922.72;6110163;23;20051;-71
2023/05/10 06:52:57;;;;;;;34.25;25.73;;;;;;;12.70;100.00;100925.28;6158025;23;20443;-72
2023/05/10 06:55:23;;;;;;;38.50;26.15;;;;;;;12.67;100.00;100926.22;6133914;23;20012;-72
2023/05/10 06:57:48;;;;;;;36.45;27.10;;;;;;;12.70;100.00;100926.16;6158843;23;20020;-72
2023/05/10 07:00:17;;;;;;;40.40;27.60;;;;;;;12.74;100.00;100933.09;6134387;23;20013;-71
2023/05/10 07:02:43;;;;;;;39.08;26.48;;;;;;;12.72;100.00;100940.13;6158965;23;20493;-71
2023/05/10 07:05:08;;;;;;;39.42;26.55;;;;;;;12.67;99.97;100936.75;6109714;23;20131;-72
2023/05/10 07:07:34;;;;;;;39.08;26.58;;;;;;;12.67;100.00;100941.13;6133579;23;20029;-72
2023/05/10 07:10:00;;;;;;;36.90;27.67;;;;;;;12.70;100.00;100941.94;6158136;23;20397;-72
2023/05/10 07:12:25;;;;;;;40.50;27.55;;;;;;;12.71;100.00;100948.91;6158885;23;20009;-72
2023/05/10 07:14:51;;;;;;;44.83;28.33;;;;;;;12.69;100.00;100955.97;6109752;23;20008;-72
2023/05/10 07:17:19;;;;;;;42.17;28.70;;;;;;;12.64;100.00;100952.56;6157228;23;20035;-72
2023/05/10 07:19:45;;;;;;;42.38;30.55;;;;;;;12.71;100.00;100955.94;6133693;23;20013;-72
2023/05/10 07:22:11;;;;;;;43.58;28.77;;;;;;;12.68;99.38;100958.63;6134290;23;20285;-72
2023/05/10 07:24:36;;;;;;;38.92;27.77;;;;;;;12.67;99.59;100956.91;6133582;23;20005;-72
2023/05/10 07:27:02;;;;;;;39.83;29.33;;;;;;;12.64;99.68;100963.97;6134274;23;20346;-72
2023/05/10 07:29:28;;;;;;;42.45;28.88;;;;;;;12.67;99.82;100968.28;6158014;23;20013;-72
2023/05/10 07:31:54;;;;;;;42.25;28.60;;;;;;;12.67;100.00;100963.03;6110277;23;20092;-72
2023/05/10 07:34:19;;;;;;;41.53;28.95;;;;;;;12.67;100.00;100970.94;6158852;23;20442;-72
2023/05/10 07:36:45;;;;;;;44.60;30.40;;;;;;;12.68;100.00;100969.16;6134105;23;20013;-72
2023/05/10 07:39:10;;;;;;;51.65;30.00;;;;;;;12.67;100.00;100973.56;6157350;23;20025;-71
2023/05/10 07:41:37;;;;;;;40.90;28.42;;;;;;;12.59;100.00;100973.66;6110100;23;20005;-72
2023/05/10 07:44:03;;;;;;;43.63;30.65;;;;;;;12.57;100.00;100964.97;6109999;23;20017;-72
2023/05/10 07:46:30;;;;;;;42.65;28.35;;;;;;;12.56;100.00;100980.75;6109882;23;20005;-72
2023/05/10 07:48:55;;;;;;;42.72;29.10;;;;;;;12.55;100.00;100974.63;6107999;23;20075;-72
2023/05/10 07:51:21;;;;;;;44.58;29.05;;;;;;;12.50;100.00;100980.84;6158036;23;20021;-72
2023/05/10 07:53:46;;;;;;;44.85;30.58;;;;;;;12.50;100.00;100983.47;6132150;23;20043;-72
2023/05/10 07:56:26;;;;;;;39.90;28.45;;;;;;;12.53;100.00;100986.94;6108880;23;20293;-72
2023/05/10 07:58:52;;;;;;;40.95;28.55;;;;;;;12.52;100.00;100989.59;6157255;23;20312;-72
2023/05/10 08:01:18;;;;;;;44.67;29.13;;;;;;;12.47;100.00;100987.06;6133104;23;20020;-72
2023/05/10 08:03:43;;;;;;;46.00;29.00;;;;;;;12.50;100.00;100989.63;6109523;23;20380;-72
2023/05/10 08:06:09;;;;;;;42.08;27.75;;;;;;;12.56;100.00;100996.53;6133720;23;20009;-72
2023/05/10 08:08:34;;;;;;;43.33;28.33;;;;;;;12.57;100.00;100995.63;6108604;23;20017;-72
2023/05/10 08:11:00;;;;;;;45.35;28.85;;;;;;;12.57;100.00;101003.50;6108437;23;20013;-72
2023/05/10 08:13:25;;;;;;;44.47;29.55;;;;;;;12.61;100.00;101006.06;6108276;23;20016;-72
2023/05/10 08:15:52;;;;;;;44.92;28.80;;;;;;;12.58;100.00;101006.09;6131954;23;20005;-72
2023/05/10 08:18:18;;;;;;;43.50;29.85;;;;;;;12.57;100.00;101008.75;6109009;23;20016;-72
2023/05/10 08:20:44;;;;;;;42.10;28.35;;;;;;;12.57;100.00;101014.91;6156552;23;20005;-72
2023/05/10 08:23:09;;;;;;;32.80;22.85;;;;;;;12.55;100.00;101007.94;6107713;23;20036;-71
2023/05/10 08:25:35;;;;;;;33.35;23.42;;;;;;;12.55;100.00;101008.78;6108336;23;20092;-72
2023/05/10 08:28:00;;;;;;;30.23;22.00;;;;;;;12.54;99.89;101019.34;6107860;23;20039;-71
2023/05/10 08:30:26;;;;;;;29.55;21.20;;;;;;;12.56;100.00;101022.81;6133565;23;20032;-72
2023/05/10 08:32:51;;;;;;;28.20;21.48;;;;;;;12.51;99.97;101025.50;6108561;23;20013;-71
2023/05/10 08:35:16;;;;;;;34.70;23.88;;;;;;;12.57;100.00;101029.78;6110002;23;20008;-72
2023/05/10 08:38:01;;;;;;;32.70;23.88;;;;;;;12.61;100.00;101023.59;6157766;23;20155;-71
2023/05/10 08:40:30;;;;;;;32.80;21.45;;;;;;;12.61;98.85;101036.75;6162675;23;20781;-72
2023/05/10 08:43:08;;;;;;;29.02;21.13;;;;;;;12.72;99.97;101039.19;6157365;23;20013;-72
2023/05/10 08:45:38;;;;;;;28.75;21.55;;;;;;;12.74;99.84;101034.75;6158547;23;20067;-72
2023/05/10 08:48:06;;;;;;;25.23;19.95;;;;;;;12.81;99.38;101039.91;6158975;23;20009;-72
2023/05/10 08:50:38;;;;;;;25.58;19.90;;;;;;;12.88;98.69;101031.91;6157814;23;20320;-72
2023/05/10 08:53:06;;;;;;;25.92;20.27;;;;;;;12.97;97.92;101042.22;6157565;23;20025;-72
2023/05/10 08:55:33;;;;;;;26.50;21.33;;;;;;;13.09;99.93;101043.78;6134100;23;20011;-72
2023/05/10 08:57:59;;;;;;;28.95;20.70;;;;;;;13.15;98.38;101044.53;6134184;23;20080;-72
2023/05/10 09:00:25;;;;;;;23.85;19.40;;;;;;;13.15;94.89;101051.56;6109388;23;20017;-72
2023/05/10 09:03:02;;;;;;;23.25;18.13;;;;;;;13.20;95.35;101051.47;6133990;23;20495;-72
2023/05/10 09:05:31;;;;;;;25.13;18.67;;;;;;;13.30;96.74;101058.28;6158394;23;20005;-72
2023/05/10 09:08:08;;;;;;;22.45;16.38;;;;;;;13.25;93.70;101049.63;6157634;23;20115;-73
2023/05/10 09:10:37;;;;;;;19.70;15.07;;;;;;;13.29;93.85;101052.16;6132709;23;20497;-72
2023/05/10 09:13:03;;;;;;;19.88;15.45;;;;;;;13.38;94.96;101058.19;6109860;23;20031;-72
2023/05/10 09:15:28;;;;;;;21.13;16.45;;;;;;;13.44;96.18;101061.53;6133570;23;20083;-73
2023/05/10 09:17:54;;;;;;;20.42;16.00;;;;;;;13.51;95.92;101051.75;6158037;23;20040;-72
2023/05/10 09:20:30;;;;;;;25.15;18.33;;;;;;;13.55;94.32;101060.44;6110221;23;20005;-82
2023/05/10 09:23:21;;;;;;;22.13;17.70;;;;;;;13.54;94.20;101071.91;6133051;23;20013;-81
2023/05/10 09:25:46;;;;;;;20.58;14.98;;;;;;;13.46;91.97;101072.03;6157928;23;20012;-82
2023/05/10 09:28:12;;;;;;;22.45;15.88;;;;;;;13.58;94.24;101068.31;6156877;23;20009;-81
2023/05/10 09:30:39;;;;;;;20.15;16.92;;;;;;;13.52;93.91;101066.66;6097938;23;20341;-81
2023/05/10 09:33:05;;;;;;;20.75;15.07;;;;;;;13.54;92.74;101071.91;6049609;23;20017;-81
2023/05/10 09:35:32;;;;;;;20.77;15.18;;;;;;;13.54;92.92;101077.16;6097464;23;20012;-82
2023/05/10 09:38:02;;;;;;;19.25;15.35;;;;;;;13.56;93.92;101080.63;6121529;23;20029;-81
2023/05/10 09:40:55;;;;;;;19.02;15.60;;;;;;;13.68;95.48;101075.97;6122706;23;20035;-81
2023/05/10 09:43:27;;;;;;;16.15;13.63;;;;;;;13.60;91.69;101084.94;6097555;23;20014;-81
2023/05/10 09:46:11;;;;;;;15.63;11.15;;;;;;;13.63;91.49;101082.22;6098014;23;20365;-80
2023/05/10 09:49:00;;;;;;;18.02;12.07;;;;;;;13.65;93.24;101086.56;6097347;23;20149;-81
2023/05/10 09:51:26;;;;;;;13.20;11.15;;;;;;;13.63;91.29;101084.84;6096736;23;20100;-80
2023/05/10 09:54:15;;;;;;;16.58;13.55;;;;;;;13.80;94.37;101085.38;6072828;23;20097;-81
2023/05/10 09:56:51;;;;;;;16.58;12.35;;;;;;;13.86;92.23;101085.25;6074089;23;20024;-80
2023/05/10 09:59:18;;;;;;;14.32;11.57;;;;;;;14.05;92.69;101079.59;6097621;23;20033;-81
2023/05/10 10:02:20;;;;;;;12.80;10.27;;;;;;;14.13;91.68;101085.53;6081277;23;20092;-81
2023/05/10 10:05:07;;;;;;;12.52;10.48;;;;;;;14.30;91.12;101081.66;5988746;23;20039;-81
2023/05/10 10:07:34;;;;;;;13.32;9.95;;;;;;;14.44;88.69;101084.81;6149068;23;20004;-80
2023/05/10 10:10:12;;;;;;;;;;;;;;;;;;;;;
2023/05/10 10:12:42;;;;;;;41.35;23.00;;;;;;;14.86;89.64;101079.41;6183311;23;20076;-79
2023/05/10 10:15:09;;;;;;;21.50;14.03;;;;;;;15.02;84.84;101073.75;6131320;23;20012;-80
2023/05/10 10:17:37;;;;;;;12.35;10.40;;;;;;;15.09;85.90;101080.59;6133588;23;20075;-80
2023/05/10 10:20:03;;;;;;;12.32;10.10;;;;;;;15.11;84.59;101077.91;6158778;23;20059;-80
2023/05/10 10:22:29;;;;;;;25.52;16.70;;;;;;;15.34;89.57;101069.34;6133003;23;20029;-80
2023/05/10 10:24:55;;;;;;;92.80;45.17;;;;;;;15.42;83.97;101075.28;6134345;23;20023;-82
2023/05/10 10:27:26;;;;;;;14.85;10.77;;;;;;;15.51;87.35;101076.81;6159992;23;20005;-81
2023/05/10 10:30:18;;;;;;;10.73;8.75;;;;;;;15.53;85.42;101072.31;6158630;23;20059;-80
2023/05/10 10:33:05;;;;;;;12.73;10.02;;;;;;;15.67;85.13;101090.44;6185692;23;20044;-81
2023/05/10 10:35:32;;;;;;;16.38;11.60;;;;;;;15.53;82.07;101078.50;6159784;23;20044;-80
2023/05/10 10:37:58;;;;;;;44.60;25.42;;;;;;;15.62;84.34;101085.28;6158462;23;20016;-78
2023/05/10 10:40:24;;;;;;;15.93;10.38;;;;;;;15.44;81.42;101084.03;6156741;23;20388;-79
2023/05/10 10:42:49;;;;;;;12.93;9.23;;;;;;;15.33;81.65;101088.72;6157004;23;20009;-82
2023/05/10 10:45:16;;;;;;;10.80;7.95;;;;;;;15.07;82.99;101082.41;6133819;23;20017;-81
2023/05/10 10:47:43;;;;;;;11.27;8.27;;;;;;;14.81;83.61;101077.78;6134103;23;20012;-80
2023/05/10 10:50:09;;;;;;;10.90;8.55;;;;;;;14.72;84.66;101084.19;6134494;23;20013;-81
2023/05/10 10:52:38;;;;;;;11.32;8.82;;;;;;;14.53;84.83;101081.97;6108797;23;20012;-80
2023/05/10 10:55:24;;;;;;;11.55;9.45;;;;;;;14.59;85.44;101082.72;6132045;23;20036;-80
2023/05/10 10:57:54;;;;;;;13.30;9.80;;;;;;;14.41;84.31;101078.75;6157265;23;20001;-80
2023/05/10 11:00:21;;;;;;;12.05;10.10;;;;;;;14.36;85.85;101085.00;6163992;22;20560;-78
2023/05/10 11:07:54;;;;;;;17.92;12.15;;;;;;;14.18;89.75;101083.66;6163061;23;20029;-78
2023/05/10 11:10:24;;;;;;;14.35;11.23;;;;;;;14.15;89.66;101081.09;6127654;23;20435;-77
2023/05/10 11:13:06;;;;;;;16.88;12.63;;;;;;;14.27;92.05;101089.63;6144856;23;20033;-69
2023/05/10 11:15:33;;;;;;;14.95;11.82;;;;;;;14.26;91.21;101103.72;6161904;23;20105;-69